sensor_id;sensor_type;location;lat;lon;timestamp;pressure;altitude;pressure_sealevel;temperature;humidity
59063;BME280;44851;45.648;9.004;2023-02-01T00:01:18;99437.06;;;2.59;52.54
59063;BME280;44851;45.648;9.004;2023-02-01T00:03:43;99434.28;;;2.46;52.64
59063;BME280;44851;45.648;9.004;2023-02-01T00:06:08;99436.09;;;2.62;52.43
59063;BME280;44851;45.648;9.004;2023-02-01T00:08:34;99418.53;;;2.53;53.03
59063;BME280;44851;45.648;9.004;2023-02-01T00:11:05;99425.78;;;2.62;52.83
59063;BME280;44851;45.648;9.004;2023-02-01T00:13:33;99427.03;;;2.37;52.59
59063;BME280;44851;45.648;9.004;2023-02-01T00:16:09;99425.06;;;2.42;52.68
59063;BME280;44851;45.648;9.004;2023-02-01T00:18:35;99426.56;;;2.46;52.83
59063;BME280;44851;45.648;9.004;2023-02-01T00:21:01;99422.75;;;2.54;52.74
59063;BME280;44851;45.648;9.004;2023-02-01T00:23:27;99423.69;;;2.53;52.79
59063;BME280;44851;45.648;9.004;2023-02-01T00:25:52;99427.84;;;2.38;52.83
59063;BME280;44851;45.648;9.004;2023-02-01T00:28:18;99422.81;;;2.19;53.05
59063;BME280;44851;45.648;9.004;2023-02-01T00:30:43;99415.38;;;2.13;52.69
59063;BME280;44851;45.648;9.004;2023-02-01T00:33:09;99416.28;;;2.12;52.24
59063;BME280;44851;45.648;9.004;2023-02-01T00:35:35;99412.66;;;2.16;52.40
59063;BME280;44851;45.648;9.004;2023-02-01T00:38:00;99411.38;;;2.25;52.38
59063;BME280;44851;45.648;9.004;2023-02-01T00:40:26;99410.69;;;2.21;51.61
59063;BME280;44851;45.648;9.004;2023-02-01T00:42:52;99406.69;;;2.15;51.15
59063;BME280;44851;45.648;9.004;2023-02-01T00:45:18;99400.34;;;2.05;51.79
59063;BME280;44851;45.648;9.004;2023-02-01T00:47:43;99408.13;;;2.04;52.28
59063;BME280;44851;45.648;9.004;2023-02-01T00:50:09;99417.41;;;2.06;52.05
59063;BME280;44851;45.648;9.004;2023-02-01T00:52:35;99410.41;;;2.10;51.76
59063;BME280;44851;45.648;9.004;2023-02-01T00:55:00;99410.31;;;2.11;51.75
59063;BME280;44851;45.648;9.004;2023-02-01T00:57:26;99416.00;;;2.01;51.51
59063;BME280;44851;45.648;9.004;2023-02-01T00:59:51;99411.75;;;2.00;51.61
59063;BME280;44851;45.648;9.004;2023-02-01T01:02:17;99407.75;;;1.94;51.89
59063;BME280;44851;45.648;9.004;2023-02-01T01:04:42;99410.09;;;1.99;51.90
59063;BME280;44851;45.648;9.004;2023-02-01T01:07:07;99407.66;;;1.95;51.59
59063;BME280;44851;45.648;9.004;2023-02-01T01:09:34;99407.75;;;1.94;51.36
59063;BME280;44851;45.648;9.004;2023-02-01T01:11:59;99404.50;;;1.90;51.13
59063;BME280;44851;45.648;9.004;2023-02-01T01:14:29;99407.22;;;1.87;51.17
59063;BME280;44851;45.648;9.004;2023-02-01T01:16:55;99408.19;;;1.85;51.39
59063;BME280;44851;45.648;9.004;2023-02-01T01:19:20;99419.38;;;1.84;51.44
59063;BME280;44851;45.648;9.004;2023-02-01T01:21:46;99418.84;;;1.77;51.47
59063;BME280;44851;45.648;9.004;2023-02-01T01:24:11;99423.53;;;1.86;51.33
59063;BME280;44851;45.648;9.004;2023-02-01T01:26:37;99421.25;;;1.80;51.09
59063;BME280;44851;45.648;9.004;2023-02-01T01:29:03;99418.06;;;1.75;51.64
59063;BME280;44851;45.648;9.004;2023-02-01T01:31:29;99424.13;;;1.74;51.44
59063;BME280;44851;45.648;9.004;2023-02-01T01:33:56;99413.63;;;1.79;51.21
59063;BME280;44851;45.648;9.004;2023-02-01T01:36:23;99420.22;;;1.84;50.93
59063;BME280;44851;45.648;9.004;2023-02-01T01:38:48;99415.97;;;1.83;50.58
59063;BME280;44851;45.648;9.004;2023-02-01T01:41:17;99411.66;;;1.84;51.03
59063;BME280;44851;45.648;9.004;2023-02-01T01:43:57;99411.66;;;1.84;50.26
59063;BME280;44851;45.648;9.004;2023-02-01T01:46:32;99408.72;;;1.91;50.41
59063;BME280;44851;45.648;9.004;2023-02-01T01:49:15;99405.84;;;1.80;50.71
59063;BME280;44851;45.648;9.004;2023-02-01T01:54:20;99401.91;;;1.90;50.73
59063;BME280;44851;45.648;9.004;2023-02-01T01:56:51;99400.88;;;1.77;50.78
59063;BME280;44851;45.648;9.004;2023-02-01T01:59:18;99406.63;;;1.82;50.65
59063;BME280;44851;45.648;9.004;2023-02-01T02:01:45;99399.22;;;1.76;51.30
59063;BME280;44851;45.648;9.004;2023-02-01T02:04:11;99393.38;;;1.73;51.04
59063;BME280;44851;45.648;9.004;2023-02-01T02:06:43;99386.50;;;1.73;51.60
59063;BME280;44851;45.648;9.004;2023-02-01T02:09:14;99389.97;;;1.72;51.26
59063;BME280;44851;45.648;9.004;2023-02-01T02:11:40;99386.63;;;1.70;51.44
59063;BME280;44851;45.648;9.004;2023-02-01T02:14:08;99383.09;;;1.73;51.20
59063;BME280;44851;45.648;9.004;2023-02-01T02:17:38;99376.56;;;1.65;50.29
59063;BME280;44851;45.648;9.004;2023-02-01T02:45:14;99380.09;;;1.46;50.47
59063;BME280;44851;45.648;9.004;2023-02-01T02:48:27;99386.81;;;1.48;50.60
59063;BME280;44851;45.648;9.004;2023-02-01T02:51:01;99382.72;;;1.44;51.09
59063;BME280;44851;45.648;9.004;2023-02-01T02:53:56;99380.41;;;1.39;51.52
59063;BME280;44851;45.648;9.004;2023-02-01T02:56:41;99369.50;;;1.34;51.81
59063;BME280;44851;45.648;9.004;2023-02-01T02:59:27;99375.69;;;1.30;51.36
59063;BME280;44851;45.648;9.004;2023-02-01T03:02:13;99379.47;;;1.23;52.15
59063;BME280;44851;45.648;9.004;2023-02-01T03:04:58;99383.19;;;1.16;52.26
59063;BME280;44851;45.648;9.004;2023-02-01T03:07:52;99380.41;;;1.21;51.60
59063;BME280;44851;45.648;9.004;2023-02-01T03:12:52;99368.84;;;1.48;51.32
59063;BME280;44851;45.648;9.004;2023-02-01T03:15:31;99369.09;;;1.61;51.04
59063;BME280;44851;45.648;9.004;2023-02-01T03:17:58;99364.03;;;1.59;51.14
59063;BME280;44851;45.648;9.004;2023-02-01T03:20:27;99364.25;;;1.55;50.92
59063;BME280;44851;45.648;9.004;2023-02-01T03:22:54;99364.25;;;1.55;51.08
59063;BME280;44851;45.648;9.004;2023-02-01T03:25:25;99360.78;;;1.56;50.88
59063;BME280;44851;45.648;9.004;2023-02-01T03:27:56;99364.09;;;1.58;50.86
59063;BME280;44851;45.648;9.004;2023-02-01T03:30:25;99367.41;;;1.60;51.03
59063;BME280;44851;45.648;9.004;2023-02-01T03:32:54;99372.59;;;1.77;50.61
59063;BME280;44851;45.648;9.004;2023-02-01T03:46:30;99378.91;;;1.53;51.06
59063;BME280;44851;45.648;9.004;2023-02-01T03:49:01;99381.63;;;1.50;51.46
59063;BME280;44851;45.648;9.004;2023-02-01T03:51:28;99375.50;;;1.52;51.41
59063;BME280;44851;45.648;9.004;2023-02-01T03:53:56;99381.13;;;1.60;50.90
59063;BME280;44851;45.648;9.004;2023-02-01T03:56:23;99369.66;;;1.49;51.38
59063;BME280;44851;45.648;9.004;2023-02-01T03:58:51;99361.66;;;1.55;51.15
59063;BME280;44851;45.648;9.004;2023-02-01T04:01:26;99357.59;;;1.51;51.43
59063;BME280;44851;45.648;9.004;2023-02-01T04:03:52;99364.69;;;1.46;51.44
59063;BME280;44851;45.648;9.004;2023-02-01T04:06:18;99356.63;;;1.53;51.35
59063;BME280;44851;45.648;9.004;2023-02-01T04:08:43;99357.31;;;1.57;51.53
59063;BME280;44851;45.648;9.004;2023-02-01T04:11:09;99357.22;;;1.41;51.73
59063;BME280;44851;45.648;9.004;2023-02-01T04:13:34;99360.00;;;1.54;51.46
59063;BME280;44851;45.648;9.004;2023-02-01T04:16:00;99357.94;;;1.43;51.72
59063;BME280;44851;45.648;9.004;2023-02-01T04:18:25;99360.53;;;1.43;51.95
59063;BME280;44851;45.648;9.004;2023-02-01T04:20:51;99359.84;;;1.39;51.47
59063;BME280;44851;45.648;9.004;2023-02-01T04:23:16;99369.81;;;1.28;52.29
59063;BME280;44851;45.648;9.004;2023-02-01T04:25:41;99361.41;;;1.25;52.15
59063;BME280;44851;45.648;9.004;2023-02-01T04:28:07;99369.44;;;1.36;52.36
59063;BME280;44851;45.648;9.004;2023-02-01T04:30:32;99369.56;;;1.33;51.65
59063;BME280;44851;45.648;9.004;2023-02-01T04:32:58;99372.38;;;1.28;52.30
59063;BME280;44851;45.648;9.004;2023-02-01T04:35:23;99378.38;;;1.27;51.75
59063;BME280;44851;45.648;9.004;2023-02-01T04:37:49;99374.44;;;1.20;51.65
59063;BME280;44851;45.648;9.004;2023-02-01T04:40:14;99379.16;;;1.29;51.88
59063;BME280;44851;45.648;9.004;2023-02-01T04:42:39;99385.56;;;1.21;52.40
59063;BME280;44851;45.648;9.004;2023-02-01T04:45:05;99373.53;;;1.21;51.82
59063;BME280;44851;45.648;9.004;2023-02-01T04:47:31;99369.44;;;1.17;52.18
59063;BME280;44851;45.648;9.004;2023-02-01T04:49:56;99364.72;;;1.27;52.13
59063;BME280;44851;45.648;9.004;2023-02-01T04:52:22;99374.66;;;1.15;52.26
59063;BME280;44851;45.648;9.004;2023-02-01T04:54:47;99367.44;;;1.05;52.96
59063;BME280;44851;45.648;9.004;2023-02-01T04:57:13;99376.88;;;1.04;52.41
59063;BME280;44851;45.648;9.004;2023-02-01T04:59:40;99378.41;;;1.08;52.57
59063;BME280;44851;45.648;9.004;2023-02-01T05:02:05;99375.44;;;1.17;51.88
59063;BME280;44851;45.648;9.004;2023-02-01T05:04:31;99377.31;;;1.14;51.69
59063;BME280;44851;45.648;9.004;2023-02-01T05:06:56;99380.69;;;1.14;51.55
59063;BME280;44851;45.648;9.004;2023-02-01T05:09:21;99379.09;;;1.12;51.90
59063;BME280;44851;45.648;9.004;2023-02-01T05:11:47;99382.28;;;1.17;51.78
59063;BME280;44851;45.648;9.004;2023-02-01T05:14:31;99380.00;;;1.11;51.78
59063;BME280;44851;45.648;9.004;2023-02-01T05:16:56;99378.53;;;1.05;52.12
59063;BME280;44851;45.648;9.004;2023-02-01T05:19:22;99382.03;;;1.04;52.01
59063;BME280;44851;45.648;9.004;2023-02-01T05:21:47;99380.00;;;1.11;51.89
59063;BME280;44851;45.648;9.004;2023-02-01T05:24:12;99376.19;;;1.01;51.79
59063;BME280;44851;45.648;9.004;2023-02-01T05:26:42;99377.31;;;1.14;52.24
59063;BME280;44851;45.648;9.004;2023-02-01T05:29:09;99377.50;;;1.09;52.04
59063;BME280;44851;45.648;9.004;2023-02-01T05:31:39;99378.09;;;0.97;51.80
59063;BME280;44851;45.648;9.004;2023-02-01T05:34:05;99374.69;;;0.97;52.50
59063;BME280;44851;45.648;9.004;2023-02-01T05:36:31;99377.91;;;1.00;51.93
59063;BME280;44851;45.648;9.004;2023-02-01T05:38:57;99380.44;;;1.02;52.02
59063;BME280;44851;45.648;9.004;2023-02-01T05:41:22;99385.06;;;0.94;52.00
59063;BME280;44851;45.648;9.004;2023-02-01T05:43:48;99392.66;;;0.97;51.92
59063;BME280;44851;45.648;9.004;2023-02-01T05:46:13;99382.63;;;0.90;52.47
59063;BME280;44851;45.648;9.004;2023-02-01T05:48:40;99384.56;;;0.85;52.43
59063;BME280;44851;45.648;9.004;2023-02-01T05:51:05;99381.34;;;0.82;52.76
59063;BME280;44851;45.648;9.004;2023-02-01T05:53:30;99386.66;;;0.77;53.09
59063;BME280;44851;45.648;9.004;2023-02-01T05:55:56;99382.28;;;0.79;53.18
59063;BME280;44851;45.648;9.004;2023-02-01T05:58:22;99383.97;;;0.80;52.66
59063;BME280;44851;45.648;9.004;2023-02-01T06:00:47;99376.75;;;0.70;52.91
59063;BME280;44851;45.648;9.004;2023-02-01T06:03:12;99371.94;;;0.62;53.38
59063;BME280;44851;45.648;9.004;2023-02-01T06:05:38;99373.91;;;0.76;53.28
59063;BME280;44851;45.648;9.004;2023-02-01T06:08:04;99375.16;;;0.67;53.47
59063;BME280;44851;45.648;9.004;2023-02-01T06:10:29;99373.28;;;0.71;53.64
59063;BME280;44851;45.648;9.004;2023-02-01T06:12:54;99381.41;;;0.80;53.06
59063;BME280;44851;45.648;9.004;2023-02-01T06:15:20;99371.88;;;0.63;53.51
59063;BME280;44851;45.648;9.004;2023-02-01T06:17:46;99371.25;;;0.58;53.44
59063;BME280;44851;45.648;9.004;2023-02-01T06:20:14;99380.41;;;0.64;53.39
59063;BME280;44851;45.648;9.004;2023-02-01T06:22:40;99383.19;;;0.78;53.42
59063;BME280;44851;45.648;9.004;2023-02-01T06:25:07;99378.22;;;0.75;53.27
59063;BME280;44851;45.648;9.004;2023-02-01T06:27:33;99381.66;;;0.74;53.13
59063;BME280;44851;45.648;9.004;2023-02-01T06:29:59;99369.75;;;0.73;53.47
59063;BME280;44851;45.648;9.004;2023-02-01T06:32:25;99376.16;;;0.63;54.02
59063;BME280;44851;45.648;9.004;2023-02-01T06:34:50;99375.53;;;0.58;53.82
59063;BME280;44851;45.648;9.004;2023-02-01T06:37:18;99391.38;;;0.68;53.85
59063;BME280;44851;45.648;9.004;2023-02-01T06:39:44;99388.03;;;0.65;54.05
59063;BME280;44851;45.648;9.004;2023-02-01T06:42:09;99382.75;;;0.69;54.20
59063;BME280;44851;45.648;9.004;2023-02-01T06:44:34;99391.44;;;0.66;54.05
59063;BME280;44851;45.648;9.004;2023-02-01T06:47:00;99389.41;;;0.54;54.60
59063;BME280;44851;45.648;9.004;2023-02-01T06:49:25;99394.53;;;0.54;54.33
59063;BME280;44851;45.648;9.004;2023-02-01T06:51:51;99400.19;;;0.42;54.96
59063;BME280;44851;45.648;9.004;2023-02-01T06:54:16;99403.28;;;0.50;54.97
59063;BME280;44851;45.648;9.004;2023-02-01T06:56:41;99410.97;;;0.50;54.60
59063;BME280;44851;45.648;9.004;2023-02-01T06:59:07;99414.09;;;0.56;54.86
59063;BME280;44851;45.648;9.004;2023-02-01T07:01:33;99415.06;;;0.54;54.99
59063;BME280;44851;45.648;9.004;2023-02-01T07:03:59;99411.31;;;0.61;54.69
59063;BME280;44851;45.648;9.004;2023-02-01T07:06:25;99417.47;;;0.57;54.78
59063;BME280;44851;45.648;9.004;2023-02-01T07:08:50;99421.69;;;0.58;55.07
59063;BME280;44851;45.648;9.004;2023-02-01T07:11:17;99424.34;;;0.56;54.83
59063;BME280;44851;45.648;9.004;2023-02-01T07:13:43;99429.03;;;0.47;55.21
59063;BME280;44851;45.648;9.004;2023-02-01T07:16:11;99430.00;;;0.44;55.39
59063;BME280;44851;45.648;9.004;2023-02-01T07:18:37;99433.13;;;0.51;55.77
59063;BME280;44851;45.648;9.004;2023-02-01T07:21:03;99431.84;;;0.61;55.65
59063;BME280;44851;45.648;9.004;2023-02-01T07:23:29;99423.44;;;0.57;55.48
59063;BME280;44851;45.648;9.004;2023-02-01T07:25:58;99431.47;;;0.70;55.70
59063;BME280;44851;45.648;9.004;2023-02-01T07:28:24;99426.31;;;0.70;55.19
59063;BME280;44851;45.648;9.004;2023-02-01T07:30:50;99428.66;;;0.75;55.53
59063;BME280;44851;45.648;9.004;2023-02-01T07:33:25;99419.38;;;0.72;54.66
59063;BME280;44851;45.648;9.004;2023-02-01T07:35:51;99418.88;;;0.64;55.52
59063;BME280;44851;45.648;9.004;2023-02-01T07:38:17;99426.44;;;0.67;55.49
59063;BME280;44851;45.648;9.004;2023-02-01T07:40:43;99422.53;;;0.58;56.19
59063;BME280;44851;45.648;9.004;2023-02-01T07:43:09;99430.03;;;0.63;55.90
59063;BME280;44851;45.648;9.004;2023-02-01T07:45:36;99438.72;;;0.60;56.02
59063;BME280;44851;45.648;9.004;2023-02-01T07:48:02;99439.28;;;0.67;56.41
59063;BME280;44851;45.648;9.004;2023-02-01T07:50:28;99445.16;;;0.69;56.71
59063;BME280;44851;45.648;9.004;2023-02-01T07:52:54;99448.34;;;0.74;56.70
59063;BME280;44851;45.648;9.004;2023-02-01T07:55:20;99442.47;;;0.72;56.22
59063;BME280;44851;45.648;9.004;2023-02-01T07:57:46;99447.47;;;0.75;56.59
59063;BME280;44851;45.648;9.004;2023-02-01T08:00:12;99450.88;;;0.76;56.71
59063;BME280;44851;45.648;9.004;2023-02-01T08:02:59;99454.91;;;0.81;56.24
59063;BME280;44851;45.648;9.004;2023-02-01T08:05:25;99452.16;;;0.86;56.43
59063;BME280;44851;45.648;9.004;2023-02-01T08:07:50;99454.28;;;0.95;56.47
59063;BME280;44851;45.648;9.004;2023-02-01T08:10:17;99451.09;;;0.90;56.80
59063;BME280;44851;45.648;9.004;2023-02-01T08:12:43;99453.69;;;1.09;57.18
59063;BME280;44851;45.648;9.004;2023-02-01T08:15:13;99447.44;;;1.14;56.99
59063;BME280;44851;45.648;9.004;2023-02-01T08:17:39;99446.06;;;1.26;56.78
59063;BME280;44851;45.648;9.004;2023-02-01T08:20:05;99446.34;;;1.39;56.73
59063;BME280;44851;45.648;9.004;2023-02-01T08:22:33;99447.56;;;1.49;56.38
59063;BME280;44851;45.648;9.004;2023-02-01T08:24:58;99455.06;;;1.54;56.60
59063;BME280;44851;45.648;9.004;2023-02-01T08:27:26;99462.00;;;1.52;57.12
59063;BME280;44851;45.648;9.004;2023-02-01T08:29:52;99462.59;;;1.76;56.95
59063;BME280;44851;45.648;9.004;2023-02-01T08:32:19;99465.44;;;1.88;56.93
59063;BME280;44851;45.648;9.004;2023-02-01T08:34:44;99471.78;;;1.99;57.19
59063;BME280;44851;45.648;9.004;2023-02-01T08:37:10;99467.88;;;2.09;56.88
59063;BME280;44851;45.648;9.004;2023-02-01T08:39:35;99471.66;;;2.19;56.20
59063;BME280;44851;45.648;9.004;2023-02-01T08:42:01;99467.06;;;2.26;56.34
59063;BME280;44851;45.648;9.004;2023-02-01T08:44:45;99465.75;;;2.52;56.02
59063;BME280;44851;45.648;9.004;2023-02-01T08:47:12;99469.19;;;2.85;54.91
59063;BME280;44851;45.648;9.004;2023-02-01T08:49:37;99464.78;;;3.20;54.47
59063;BME280;44851;45.648;9.004;2023-02-01T08:52:03;99461.47;;;3.66;52.62
59063;BME280;44851;45.648;9.004;2023-02-01T08:54:28;99462.72;;;3.90;52.99
59063;BME280;44851;45.648;9.004;2023-02-01T08:56:54;99455.72;;;3.92;52.89
59063;BME280;44851;45.648;9.004;2023-02-01T08:59:20;99461.41;;;4.57;50.39
59063;BME280;44851;45.648;9.004;2023-02-01T09:01:45;99450.19;;;4.87;50.99
59063;BME280;44851;45.648;9.004;2023-02-01T09:04:10;99447.41;;;5.33;55.50
59063;BME280;44851;45.648;9.004;2023-02-01T09:06:36;99451.41;;;5.93;54.34
59063;BME280;44851;45.648;9.004;2023-02-01T09:09:02;99451.63;;;6.42;53.47
59063;BME280;44851;45.648;9.004;2023-02-01T09:11:27;99454.53;;;6.76;50.80
59063;BME280;44851;45.648;9.004;2023-02-01T09:13:53;99462.38;;;7.25;51.63
59063;BME280;44851;45.648;9.004;2023-02-01T09:16:18;99464.09;;;7.37;49.95
59063;BME280;44851;45.648;9.004;2023-02-01T09:18:43;99469.75;;;7.55;49.44
59063;BME280;44851;45.648;9.004;2023-02-01T09:21:09;99461.97;;;7.92;49.94
59063;BME280;44851;45.648;9.004;2023-02-01T09:23:35;99461.38;;;8.23;49.55
59063;BME280;44851;45.648;9.004;2023-02-01T09:26:02;99458.84;;;8.46;47.14
59063;BME280;44851;45.648;9.004;2023-02-01T09:28:27;99465.03;;;8.78;46.97
59063;BME280;44851;45.648;9.004;2023-02-01T09:30:57;99473.81;;;9.11;46.83
59063;BME280;44851;45.648;9.004;2023-02-01T09:33:23;99475.81;;;9.30;45.39
59063;BME280;44851;45.648;9.004;2023-02-01T09:35:49;99462.22;;;9.49;46.02
59063;BME280;44851;45.648;9.004;2023-02-01T09:38:14;99458.22;;;9.88;44.06
59063;BME280;44851;45.648;9.004;2023-02-01T09:40:43;99461.59;;;10.00;42.49
59063;BME280;44851;45.648;9.004;2023-02-01T09:48:36;99466.94;;;10.51;39.27
59063;BME280;44851;45.648;9.004;2023-02-01T09:51:05;99464.91;;;10.55;37.75
59063;BME280;44851;45.648;9.004;2023-02-01T09:53:43;99451.16;;;10.74;39.19
59063;BME280;44851;45.648;9.004;2023-02-01T09:56:14;99460.88;;;10.93;37.32
59063;BME280;44851;45.648;9.004;2023-02-01T09:58:55;99463.41;;;11.04;36.91
59063;BME280;44851;45.648;9.004;2023-02-01T10:01:26;99462.75;;;11.52;38.20
59063;BME280;44851;45.648;9.004;2023-02-01T10:04:01;99463.28;;;11.46;34.65
59063;BME280;44851;45.648;9.004;2023-02-01T10:09:25;99476.78;;;11.70;35.58
59063;BME280;44851;45.648;9.004;2023-02-01T10:18:08;99476.84;;;12.09;34.26
59063;BME280;44851;45.648;9.004;2023-02-01T10:28:44;99474.75;;;12.61;35.32
59063;BME280;44851;45.648;9.004;2023-02-01T10:31:12;99478.38;;;12.87;34.67
59063;BME280;44851;45.648;9.004;2023-02-01T10:33:45;99481.94;;;13.06;37.13
59063;BME280;44851;45.648;9.004;2023-02-01T10:36:20;99474.53;;;12.91;36.53
59063;BME280;44851;45.648;9.004;2023-02-01T10:38:47;99478.13;;;12.90;37.48
59063;BME280;44851;45.648;9.004;2023-02-01T10:41:15;99481.97;;;12.96;38.40
59063;BME280;44851;45.648;9.004;2023-02-01T10:43:43;99483.41;;;13.08;37.98
59063;BME280;44851;45.648;9.004;2023-02-01T10:46:10;99479.22;;;13.35;38.42
59063;BME280;44851;45.648;9.004;2023-02-01T10:48:36;99472.94;;;13.18;37.82
59063;BME280;44851;45.648;9.004;2023-02-01T10:51:27;99475.75;;;13.34;38.24
59063;BME280;44851;45.648;9.004;2023-02-01T10:54:00;99475.75;;;13.34;38.56
59063;BME280;44851;45.648;9.004;2023-02-01T10:56:28;99473.44;;;13.59;38.87
59063;BME280;44851;45.648;9.004;2023-02-01T10:59:21;99472.34;;;13.52;38.14
59063;BME280;44851;45.648;9.004;2023-02-01T11:01:50;99455.47;;;13.64;39.20
59063;BME280;44851;45.648;9.004;2023-02-01T11:04:24;99452.06;;;13.81;38.75
59063;BME280;44851;45.648;9.004;2023-02-01T11:07:01;99445.22;;;13.88;38.96
59063;BME280;44851;45.648;9.004;2023-02-01T11:09:40;99440.09;;;13.96;38.23
59063;BME280;44851;45.648;9.004;2023-02-01T11:12:29;99433.50;;;13.92;37.60
59063;BME280;44851;45.648;9.004;2023-02-01T11:15:18;99424.66;;;13.93;37.95
59063;BME280;44851;45.648;9.004;2023-02-01T11:17:47;99430.09;;;14.00;38.63
59063;BME280;44851;45.648;9.004;2023-02-01T11:20:37;99429.41;;;14.16;38.34
59063;BME280;44851;45.648;9.004;2023-02-01T11:23:04;99428.31;;;14.18;38.68
59063;BME280;44851;45.648;9.004;2023-02-01T11:25:32;99429.28;;;14.35;39.26
59063;BME280;44851;45.648;9.004;2023-02-01T11:28:00;99425.38;;;14.39;38.54
59063;BME280;44851;45.648;9.004;2023-02-01T11:30:38;99423.13;;;14.44;38.41
59063;BME280;44851;45.648;9.004;2023-02-01T11:33:06;99414.66;;;14.33;38.33
59063;BME280;44851;45.648;9.004;2023-02-01T11:35:37;99410.59;;;14.38;38.27
59063;BME280;44851;45.648;9.004;2023-02-01T11:38:45;99413.19;;;14.56;38.45
59063;BME280;44851;45.648;9.004;2023-02-01T11:41:25;99401.72;;;14.57;37.95
59063;BME280;44851;45.648;9.004;2023-02-01T11:43:57;99399.00;;;14.41;38.07
59063;BME280;44851;45.648;9.004;2023-02-01T11:46:32;99381.41;;;14.33;38.01
59063;BME280;44851;45.648;9.004;2023-02-01T11:49:20;99385.00;;;14.32;37.88
59063;BME280;44851;45.648;9.004;2023-02-01T11:58:01;99386.63;;;14.59;37.03
59063;BME280;44851;45.648;9.004;2023-02-01T12:17:08;99346.59;;;14.91;36.63
59063;BME280;44851;45.648;9.004;2023-02-01T12:30:39;99338.03;;;15.23;36.18
59063;BME280;44851;45.648;9.004;2023-02-01T12:33:21;99333.78;;;15.39;37.07
59063;BME280;44851;45.648;9.004;2023-02-01T12:38:46;99338.16;;;15.22;35.35
59063;BME280;44851;45.648;9.004;2023-02-01T12:44:04;99326.75;;;15.47;34.92
59063;BME280;44851;45.648;9.004;2023-02-01T12:46:49;99329.88;;;15.51;34.44
59063;BME280;44851;45.648;9.004;2023-02-01T12:51:59;99326.22;;;15.27;35.32
59063;BME280;44851;45.648;9.004;2023-02-01T12:54:40;99328.66;;;15.21;34.32
59063;BME280;44851;45.648;9.004;2023-02-01T12:57:35;99317.75;;;15.08;35.17
59063;BME280;44851;45.648;9.004;2023-02-01T13:02:39;99309.44;;;15.20;34.71
59063;BME280;44851;45.648;9.004;2023-02-01T13:05:20;99305.56;;;14.82;33.88
59063;BME280;44851;45.648;9.004;2023-02-01T13:08:06;99304.59;;;14.91;33.91
59063;BME280;44851;45.648;9.004;2023-02-01T13:10:57;99306.97;;;15.11;33.11
59063;BME280;44851;45.648;9.004;2023-02-01T13:13:45;99303.50;;;15.18;32.93
59063;BME280;44851;45.648;9.004;2023-02-01T13:16:35;99291.22;;;15.19;32.58
59063;BME280;44851;45.648;9.004;2023-02-01T13:19:19;99291.72;;;15.14;31.89
59063;BME280;44851;45.648;9.004;2023-02-01T13:21:49;99286.13;;;15.09;32.13
59063;BME280;44851;45.648;9.004;2023-02-01T13:24:26;99286.81;;;15.19;31.64
59063;BME280;44851;45.648;9.004;2023-02-01T13:26:54;99280.75;;;15.27;31.56
59063;BME280;44851;45.648;9.004;2023-02-01T13:29:21;99278.78;;;15.37;31.00
59063;BME280;44851;45.648;9.004;2023-02-01T13:34:54;99273.88;;;15.26;30.84
59063;BME280;44851;45.648;9.004;2023-02-01T13:43:24;99277.75;;;15.05;29.31
59063;BME280;44851;45.648;9.004;2023-02-01T13:45:54;99282.69;;;15.17;29.56
59063;BME280;44851;45.648;9.004;2023-02-01T13:48:31;99283.03;;;15.14;30.20
59063;BME280;44851;45.648;9.004;2023-02-01T13:51:00;99277.41;;;15.00;28.65
59063;BME280;44851;45.648;9.004;2023-02-01T13:53:29;99281.97;;;14.90;29.07
59063;BME280;44851;45.648;9.004;2023-02-01T13:56:02;99278.69;;;14.88;29.54
59063;BME280;44851;45.648;9.004;2023-02-01T13:58:30;99272.06;;;14.68;28.37
59063;BME280;44851;45.648;9.004;2023-02-01T14:01:32;99275.84;;;14.31;28.22
59063;BME280;44851;45.648;9.004;2023-02-01T14:04:04;99268.97;;;14.30;29.01
59063;BME280;44851;45.648;9.004;2023-02-01T14:19:34;99275.44;;;13.92;30.25
59063;BME280;44851;45.648;9.004;2023-02-01T14:24:56;99264.63;;;13.69;30.53
59063;BME280;44851;45.648;9.004;2023-02-01T14:27:27;99267.59;;;13.74;31.65
59063;BME280;44851;45.648;9.004;2023-02-01T14:29:59;99273.63;;;13.66;32.35
59063;BME280;44851;45.648;9.004;2023-02-01T14:32:30;99278.88;;;13.48;32.25
59063;BME280;44851;45.648;9.004;2023-02-01T14:34:59;99281.06;;;13.35;31.68
59063;BME280;44851;45.648;9.004;2023-02-01T14:37:28;99281.38;;;13.32;32.03
59063;BME280;44851;45.648;9.004;2023-02-01T14:42:49;99280.63;;;12.94;33.05
59063;BME280;44851;45.648;9.004;2023-02-01T14:55:53;99277.75;;;12.70;34.29
59063;BME280;44851;45.648;9.004;2023-02-01T15:01:27;99275.53;;;12.75;34.67
59063;BME280;44851;45.648;9.004;2023-02-01T15:03:58;99274.94;;;12.81;35.54
59063;BME280;44851;45.648;9.004;2023-02-01T15:09:02;99270.09;;;12.59;35.55
59063;BME280;44851;45.648;9.004;2023-02-01T15:11:28;99265.94;;;12.66;36.53
59063;BME280;44851;45.648;9.004;2023-02-01T15:13:54;99264.06;;;12.58;36.62
59063;BME280;44851;45.648;9.004;2023-02-01T15:16:23;99268.16;;;12.61;36.47
59063;BME280;44851;45.648;9.004;2023-02-01T15:18:49;99262.94;;;12.61;36.53
59063;BME280;44851;45.648;9.004;2023-02-01T15:21:23;99270.97;;;12.50;36.99
59063;BME280;44851;45.648;9.004;2023-02-01T15:23:48;99261.38;;;12.40;36.81
59063;BME280;44851;45.648;9.004;2023-02-01T15:26:30;99267.97;;;12.44;36.80
59063;BME280;44851;45.648;9.004;2023-02-01T15:28:57;99270.41;;;12.46;36.80
59063;BME280;44851;45.648;9.004;2023-02-01T15:31:37;99275.41;;;12.39;37.41
59063;BME280;44851;45.648;9.004;2023-02-01T15:34:03;99266.00;;;12.47;38.35
59063;BME280;44851;45.648;9.004;2023-02-01T15:36:29;99271.88;;;12.31;38.14
59063;BME280;44851;45.648;9.004;2023-02-01T15:41:37;99282.94;;;12.15;38.71
59063;BME280;44851;45.648;9.004;2023-02-01T15:44:07;99285.56;;;12.15;38.83
59063;BME280;44851;45.648;9.004;2023-02-01T15:46:40;99285.56;;;12.15;38.82
59063;BME280;44851;45.648;9.004;2023-02-01T15:49:31;99280.94;;;11.99;38.82
59063;BME280;44851;45.648;9.004;2023-02-01T15:52:00;99282.69;;;11.99;39.41
59063;BME280;44851;45.648;9.004;2023-02-01T15:54:28;99287.38;;;11.85;40.47
59063;BME280;44851;45.648;9.004;2023-02-01T15:56:58;99290.38;;;11.90;40.68